Kodiak, AK (99615)

9:12 PM AKST on December 03, 2016 (GMT -0900)
Albatross Avenue | | Change Station

Elev 36 ft 57.74 °N, 152.50 °W | Updated 6 minutes ago

Clear
Clear
16.3 °F
Feels Like 1 °F
N
16.2
Wind Variable Wind from NW
Gusts 31.7 mph

Today
High -- | Low -- °F
--% Chance of Precip.
Yesterday
High -- | Low -- °F
Precip. -- in
Pressure 29.95 in
Visibility 10.0 miles
Clouds Clear
Windchill 1 °F
Dew Point 7 °F
Humidity 67%
Rainfall 0.00 in
Snow Depth Not available.
9:32 AM 4:26 PM
Waxing Crescent, 20% visible
METAR PADQ 040553Z AUTO 29022G39KT 10SM CLR M08/M15 A2995 RMK AO2 PK WND 29045/0457 SLP142 T10831150 11078 21083 51026 TSNO $
Pressure 29.95 in
Visibility 10.0 miles
Clouds Clear
Windchill 1 °F
Dew Point 7 °F
Humidity 67%
Rainfall 0.00 in
Snow Depth Not available.
9:32 AM 4:26 PM
Waxing Crescent, 20% visible
METAR PADQ 040553Z AUTO 29022G39KT 10SM CLR M08/M15 A2995 RMK AO2 PK WND 29045/0457 SLP142 T10831150 11078 21083 51026 TSNO $

10-Day Weather Forecast

Almanac

Astronomy

Dec. 03, 2016 Rise Set
Actual Time
Civil Twilight
Nautical Twilight
Astronomical Twilight
Moon
Length of Visible Light
Length of Day
Tomorrow will be .
, % of the Moon is Illuminated

Today's Extremes

State Highs State Lows

Community

WunderPhotos

Upload Photos

1,955,586 photos uploaded!

WunderBlog® & News

Nearby

Air Quality

  Air Quality AQ Index Pollutant
Not available.

Snow Depth

Station Depth Elevation

Earthquake Activity

City Distance Mag. Time & Date
Minimum magnitude displayed is 2.5.

Coastal Water Temperatures

Place Temperature

Stations

Nearby Weather Stations

Station Location Temp. Windchill Dew Point Humidity Wind Precip. Elev Updated Type
                   

Watches & Warnings

There are currently no watches in effect.